sensor_id;sensor_type;location;lat;lon;timestamp;P1;durP1;ratioP1;P2;durP2;ratioP2
35562;SDS011;21665;40.108;18.302;2023-01-30T00:01:04;21.17;;;16.85;;
35562;SDS011;21665;40.108;18.302;2023-01-30T00:03:32;19.80;;;16.42;;
35562;SDS011;21665;40.108;18.302;2023-01-30T00:05:59;22.45;;;16.98;;
35562;SDS011;21665;40.108;18.302;2023-01-30T00:08:25;20.83;;;17.30;;
35562;SDS011;21665;40.108;18.302;2023-01-30T00:10:52;18.83;;;16.38;;
35562;SDS011;21665;40.108;18.302;2023-01-30T00:13:18;21.70;;;17.25;;
35562;SDS011;21665;40.108;18.302;2023-01-30T00:15:46;25.40;;;17.05;;
35562;SDS011;21665;40.108;18.302;2023-01-30T00:18:13;18.15;;;16.25;;
35562;SDS011;21665;40.108;18.302;2023-01-30T00:20:40;20.02;;;16.63;;
35562;SDS011;21665;40.108;18.302;2023-01-30T00:23:06;20.23;;;17.05;;
35562;SDS011;21665;40.108;18.302;2023-01-30T00:25:39;23.10;;;17.27;;
35562;SDS011;21665;40.108;18.302;2023-01-30T00:28:10;21.00;;;16.73;;
35562;SDS011;21665;40.108;18.302;2023-01-30T00:30:40;19.42;;;17.25;;
35562;SDS011;21665;40.108;18.302;2023-01-30T00:33:10;19.98;;;16.75;;
35562;SDS011;21665;40.108;18.302;2023-01-30T00:35:36;20.27;;;16.75;;
35562;SDS011;21665;40.108;18.302;2023-01-30T00:38:07;21.27;;;16.95;;
35562;SDS011;21665;40.108;18.302;2023-01-30T00:40:37;19.58;;;17.30;;
35562;SDS011;21665;40.108;18.302;2023-01-30T00:43:04;18.83;;;16.83;;
35562;SDS011;21665;40.108;18.302;2023-01-30T00:45:49;19.55;;;16.85;;
35562;SDS011;21665;40.108;18.302;2023-01-30T00:48:36;21.45;;;17.58;;
35562;SDS011;21665;40.108;18.302;2023-01-30T00:51:08;19.52;;;17.20;;
35562;SDS011;21665;40.108;18.302;2023-01-30T00:53:35;18.55;;;16.67;;
35562;SDS011;21665;40.108;18.302;2023-01-30T00:56:02;18.38;;;16.65;;
35562;SDS011;21665;40.108;18.302;2023-01-30T00:58:29;18.80;;;16.77;;
35562;SDS011;21665;40.108;18.302;2023-01-30T01:00:56;19.83;;;17.73;;
35562;SDS011;21665;40.108;18.302;2023-01-30T01:03:25;21.60;;;17.75;;
35562;SDS011;21665;40.108;18.302;2023-01-30T01:05:52;19.30;;;17.38;;
35562;SDS011;21665;40.108;18.302;2023-01-30T01:08:19;20.98;;;18.35;;
35562;SDS011;21665;40.108;18.302;2023-01-30T01:10:47;20.52;;;17.48;;
35562;SDS011;21665;40.108;18.302;2023-01-30T01:13:13;20.88;;;18.63;;
35562;SDS011;21665;40.108;18.302;2023-01-30T01:15:40;19.48;;;17.42;;
35562;SDS011;21665;40.108;18.302;2023-01-30T01:18:07;20.20;;;18.20;;
35562;SDS011;21665;40.108;18.302;2023-01-30T01:20:33;19.98;;;17.85;;
35562;SDS011;21665;40.108;18.302;2023-01-30T01:23:02;20.60;;;18.45;;
35562;SDS011;21665;40.108;18.302;2023-01-30T01:25:29;20.98;;;18.77;;
35562;SDS011;21665;40.108;18.302;2023-01-30T01:27:55;19.75;;;17.95;;
35562;SDS011;21665;40.108;18.302;2023-01-30T01:30:25;20.15;;;18.33;;
35562;SDS011;21665;40.108;18.302;2023-01-30T01:32:52;19.70;;;17.90;;
35562;SDS011;21665;40.108;18.302;2023-01-30T01:35:18;19.42;;;17.73;;
35562;SDS011;21665;40.108;18.302;2023-01-30T01:37:45;19.63;;;17.95;;
35562;SDS011;21665;40.108;18.302;2023-01-30T01:40:16;20.67;;;18.77;;
35562;SDS011;21665;40.108;18.302;2023-01-30T01:43:16;20.13;;;18.23;;
35562;SDS011;21665;40.108;18.302;2023-01-30T01:45:57;20.48;;;18.40;;
35562;SDS011;21665;40.108;18.302;2023-01-30T01:48:39;21.10;;;19.13;;
35562;SDS011;21665;40.108;18.302;2023-01-30T01:51:13;20.13;;;18.33;;
35562;SDS011;21665;40.108;18.302;2023-01-30T01:54:09;20.52;;;18.73;;
35562;SDS011;21665;40.108;18.302;2023-01-30T01:56:42;20.42;;;18.52;;
35562;SDS011;21665;40.108;18.302;2023-01-30T01:59:16;21.20;;;19.10;;
35562;SDS011;21665;40.108;18.302;2023-01-30T02:02:14;20.40;;;18.63;;
35562;SDS011;21665;40.108;18.302;2023-01-30T02:04:43;21.13;;;18.92;;
35562;SDS011;21665;40.108;18.302;2023-01-30T02:07:28;20.20;;;18.48;;
35562;SDS011;21665;40.108;18.302;2023-01-30T02:10:02;21.30;;;19.20;;
35562;SDS011;21665;40.108;18.302;2023-01-30T02:12:29;20.77;;;18.85;;
35562;SDS011;21665;40.108;18.302;2023-01-30T02:14:56;20.05;;;18.25;;
35562;SDS011;21665;40.108;18.302;2023-01-30T02:17:23;21.52;;;19.30;;
35562;SDS011;21665;40.108;18.302;2023-01-30T02:28:45;24.25;;;19.17;;
35562;SDS011;21665;40.108;18.302;2023-01-30T02:37:16;19.80;;;18.20;;
35562;SDS011;21665;40.108;18.302;2023-01-30T02:45:22;19.92;;;18.33;;
35562;SDS011;21665;40.108;18.302;2023-01-30T02:48:03;19.95;;;18.13;;
35562;SDS011;21665;40.108;18.302;2023-01-30T02:50:37;19.67;;;18.15;;
35562;SDS011;21665;40.108;18.302;2023-01-30T02:53:09;20.05;;;18.38;;
35562;SDS011;21665;40.108;18.302;2023-01-30T02:55:38;20.00;;;18.35;;
35562;SDS011;21665;40.108;18.302;2023-01-30T02:58:06;21.00;;;19.10;;
35562;SDS011;21665;40.108;18.302;2023-01-30T03:11:04;21.75;;;17.95;;
35562;SDS011;21665;40.108;18.302;2023-01-30T03:13:54;20.17;;;18.25;;
35562;SDS011;21665;40.108;18.302;2023-01-30T03:16:37;18.98;;;16.90;;
35562;SDS011;21665;40.108;18.302;2023-01-30T03:19:08;18.70;;;16.77;;
35562;SDS011;21665;40.108;18.302;2023-01-30T03:21:41;17.77;;;16.08;;
35562;SDS011;21665;40.108;18.302;2023-01-30T03:24:13;19.70;;;16.30;;
35562;SDS011;21665;40.108;18.302;2023-01-30T03:26:42;17.85;;;16.08;;
35562;SDS011;21665;40.108;18.302;2023-01-30T03:29:21;18.60;;;16.38;;
35562;SDS011;21665;40.108;18.302;2023-01-30T03:31:49;24.38;;;16.63;;
35562;SDS011;21665;40.108;18.302;2023-01-30T03:34:15;19.20;;;16.33;;
35562;SDS011;21665;40.108;18.302;2023-01-30T03:36:42;17.10;;;15.40;;
35562;SDS011;21665;40.108;18.302;2023-01-30T03:39:09;17.90;;;15.98;;
35562;SDS011;21665;40.108;18.302;2023-01-30T03:41:37;17.23;;;15.52;;
35562;SDS011;21665;40.108;18.302;2023-01-30T03:44:04;17.25;;;15.48;;
35562;SDS011;21665;40.108;18.302;2023-01-30T03:46:31;16.98;;;15.45;;
35562;SDS011;21665;40.108;18.302;2023-01-30T03:48:58;17.55;;;15.88;;
35562;SDS011;21665;40.108;18.302;2023-01-30T03:51:25;18.80;;;16.30;;
35562;SDS011;21665;40.108;18.302;2023-01-30T03:53:51;18.48;;;16.48;;
35562;SDS011;21665;40.108;18.302;2023-01-30T03:56:18;18.38;;;16.48;;
35562;SDS011;21665;40.108;18.302;2023-01-30T03:58:45;18.88;;;16.83;;
35562;SDS011;21665;40.108;18.302;2023-01-30T04:01:19;18.15;;;16.33;;
35562;SDS011;21665;40.108;18.302;2023-01-30T04:03:46;17.40;;;15.60;;
35562;SDS011;21665;40.108;18.302;2023-01-30T04:06:14;19.02;;;15.80;;
35562;SDS011;21665;40.108;18.302;2023-01-30T04:08:41;16.35;;;14.85;;
35562;SDS011;21665;40.108;18.302;2023-01-30T04:11:15;16.77;;;15.07;;
35562;SDS011;21665;40.108;18.302;2023-01-30T04:13:42;16.65;;;14.80;;
35562;SDS011;21665;40.108;18.302;2023-01-30T04:16:27;16.52;;;14.82;;
35562;SDS011;21665;40.108;18.302;2023-01-30T04:19:12;16.98;;;15.07;;
35562;SDS011;21665;40.108;18.302;2023-01-30T04:21:40;17.45;;;15.48;;
35562;SDS011;21665;40.108;18.302;2023-01-30T04:24:07;16.30;;;14.68;;
35562;SDS011;21665;40.108;18.302;2023-01-30T04:26:34;16.83;;;15.10;;
35562;SDS011;21665;40.108;18.302;2023-01-30T04:29:01;16.98;;;15.38;;
35562;SDS011;21665;40.108;18.302;2023-01-30T04:31:29;16.85;;;15.02;;
35562;SDS011;21665;40.108;18.302;2023-01-30T04:34:05;21.52;;;15.50;;
35562;SDS011;21665;40.108;18.302;2023-01-30T04:36:33;16.23;;;14.70;;
35562;SDS011;21665;40.108;18.302;2023-01-30T04:39:02;17.05;;;15.38;;
35562;SDS011;21665;40.108;18.302;2023-01-30T04:41:31;17.50;;;15.60;;
35562;SDS011;21665;40.108;18.302;2023-01-30T04:44:00;16.55;;;14.90;;
35562;SDS011;21665;40.108;18.302;2023-01-30T04:46:39;17.00;;;15.30;;
35562;SDS011;21665;40.108;18.302;2023-01-30T04:49:06;17.95;;;15.40;;
35562;SDS011;21665;40.108;18.302;2023-01-30T04:51:34;16.90;;;15.30;;
35562;SDS011;21665;40.108;18.302;2023-01-30T04:54:02;18.23;;;15.52;;
35562;SDS011;21665;40.108;18.302;2023-01-30T04:56:31;16.42;;;14.82;;
35562;SDS011;21665;40.108;18.302;2023-01-30T04:58:58;17.33;;;15.48;;
35562;SDS011;21665;40.108;18.302;2023-01-30T05:01:30;19.20;;;14.90;;
35562;SDS011;21665;40.108;18.302;2023-01-30T05:04:00;17.00;;;15.13;;
35562;SDS011;21665;40.108;18.302;2023-01-30T05:06:27;17.30;;;15.02;;
35562;SDS011;21665;40.108;18.302;2023-01-30T05:08:56;17.30;;;14.90;;
35562;SDS011;21665;40.108;18.302;2023-01-30T05:11:24;15.55;;;13.95;;
35562;SDS011;21665;40.108;18.302;2023-01-30T05:13:52;18.38;;;15.27;;
35562;SDS011;21665;40.108;18.302;2023-01-30T05:16:19;17.08;;;14.95;;
35562;SDS011;21665;40.108;18.302;2023-01-30T05:18:47;16.60;;;15.00;;
35562;SDS011;21665;40.108;18.302;2023-01-30T05:21:15;19.42;;;15.13;;
35562;SDS011;21665;40.108;18.302;2023-01-30T05:23:44;16.00;;;14.48;;
35562;SDS011;21665;40.108;18.302;2023-01-30T05:26:11;15.75;;;14.23;;
35562;SDS011;21665;40.108;18.302;2023-01-30T05:28:38;15.48;;;13.98;;
35562;SDS011;21665;40.108;18.302;2023-01-30T05:31:07;20.98;;;14.73;;
35562;SDS011;21665;40.108;18.302;2023-01-30T05:33:37;17.52;;;14.38;;
35562;SDS011;21665;40.108;18.302;2023-01-30T05:36:04;17.48;;;14.48;;
35562;SDS011;21665;40.108;18.302;2023-01-30T05:38:32;19.65;;;14.88;;
35562;SDS011;21665;40.108;18.302;2023-01-30T05:41:06;17.00;;;14.80;;
35562;SDS011;21665;40.108;18.302;2023-01-30T05:43:33;16.75;;;14.82;;
35562;SDS011;21665;40.108;18.302;2023-01-30T05:46:01;17.10;;;14.77;;
35562;SDS011;21665;40.108;18.302;2023-01-30T05:48:29;17.83;;;15.40;;
35562;SDS011;21665;40.108;18.302;2023-01-30T05:50:56;27.30;;;18.25;;
35562;SDS011;21665;40.108;18.302;2023-01-30T05:53:26;18.90;;;16.15;;
35562;SDS011;21665;40.108;18.302;2023-01-30T05:55:56;18.08;;;15.52;;
35562;SDS011;21665;40.108;18.302;2023-01-30T05:58:24;18.33;;;16.38;;
35562;SDS011;21665;40.108;18.302;2023-01-30T06:00:51;21.45;;;16.02;;
35562;SDS011;21665;40.108;18.302;2023-01-30T06:03:18;17.60;;;15.80;;
35562;SDS011;21665;40.108;18.302;2023-01-30T06:05:45;18.88;;;15.10;;
35562;SDS011;21665;40.108;18.302;2023-01-30T06:08:11;17.73;;;15.80;;
35562;SDS011;21665;40.108;18.302;2023-01-30T06:10:38;17.83;;;15.20;;
35562;SDS011;21665;40.108;18.302;2023-01-30T06:13:05;16.83;;;14.50;;
35562;SDS011;21665;40.108;18.302;2023-01-30T06:15:31;18.02;;;14.40;;
35562;SDS011;21665;40.108;18.302;2023-01-30T06:18:04;15.68;;;14.05;;
35562;SDS011;21665;40.108;18.302;2023-01-30T06:20:34;16.70;;;14.52;;
35562;SDS011;21665;40.108;18.302;2023-01-30T06:23:00;18.63;;;14.10;;
35562;SDS011;21665;40.108;18.302;2023-01-30T06:25:27;16.67;;;14.45;;
35562;SDS011;21665;40.108;18.302;2023-01-30T06:27:54;19.60;;;13.48;;
35562;SDS011;21665;40.108;18.302;2023-01-30T06:30:21;18.33;;;14.15;;
35562;SDS011;21665;40.108;18.302;2023-01-30T06:32:50;18.52;;;14.85;;
35562;SDS011;21665;40.108;18.302;2023-01-30T06:35:17;15.63;;;13.93;;
35562;SDS011;21665;40.108;18.302;2023-01-30T06:37:44;17.75;;;13.10;;
35562;SDS011;21665;40.108;18.302;2023-01-30T06:40:11;15.80;;;13.77;;
35562;SDS011;21665;40.108;18.302;2023-01-30T06:42:37;15.25;;;13.65;;
35562;SDS011;21665;40.108;18.302;2023-01-30T06:45:08;16.08;;;13.95;;
35562;SDS011;21665;40.108;18.302;2023-01-30T06:47:43;15.43;;;13.88;;
35562;SDS011;21665;40.108;18.302;2023-01-30T06:50:14;16.38;;;14.43;;
35562;SDS011;21665;40.108;18.302;2023-01-30T06:52:43;16.17;;;13.77;;
35562;SDS011;21665;40.108;18.302;2023-01-30T06:55:14;17.38;;;14.63;;
35562;SDS011;21665;40.108;18.302;2023-01-30T07:56:22;20.55;;;18.50;;
35562;SDS011;21665;40.108;18.302;2023-01-30T07:58:58;20.20;;;18.23;;
35562;SDS011;21665;40.108;18.302;2023-01-30T08:01:24;20.60;;;18.70;;
35562;SDS011;21665;40.108;18.302;2023-01-30T08:03:51;22.73;;;20.33;;
35562;SDS011;21665;40.108;18.302;2023-01-30T08:06:20;22.75;;;19.42;;
35562;SDS011;21665;40.108;18.302;2023-01-30T08:08:46;21.73;;;19.60;;
35562;SDS011;21665;40.108;18.302;2023-01-30T08:11:16;21.08;;;18.83;;
35562;SDS011;21665;40.108;18.302;2023-01-30T08:13:43;21.95;;;19.88;;
35562;SDS011;21665;40.108;18.302;2023-01-30T08:16:09;21.10;;;18.98;;
35562;SDS011;21665;40.108;18.302;2023-01-30T08:18:36;21.23;;;19.30;;
35562;SDS011;21665;40.108;18.302;2023-01-30T08:21:03;22.08;;;20.10;;
35562;SDS011;21665;40.108;18.302;2023-01-30T08:23:31;20.95;;;19.23;;
35562;SDS011;21665;40.108;18.302;2023-01-30T08:25:59;21.80;;;19.70;;
35562;SDS011;21665;40.108;18.302;2023-01-30T08:28:28;21.90;;;19.83;;
35562;SDS011;21665;40.108;18.302;2023-01-30T08:30:55;21.38;;;19.48;;
35562;SDS011;21665;40.108;18.302;2023-01-30T08:33:23;22.35;;;20.10;;
35562;SDS011;21665;40.108;18.302;2023-01-30T08:35:50;22.80;;;20.48;;
35562;SDS011;21665;40.108;18.302;2023-01-30T08:38:16;21.90;;;19.75;;
35562;SDS011;21665;40.108;18.302;2023-01-30T08:40:45;21.35;;;19.42;;
35562;SDS011;21665;40.108;18.302;2023-01-30T08:43:12;23.08;;;20.67;;
35562;SDS011;21665;40.108;18.302;2023-01-30T08:45:39;23.98;;;21.70;;
35562;SDS011;21665;40.108;18.302;2023-01-30T08:48:05;24.48;;;22.33;;
35562;SDS011;21665;40.108;18.302;2023-01-30T08:50:32;26.13;;;23.63;;
35562;SDS011;21665;40.108;18.302;2023-01-30T08:53:06;24.98;;;22.75;;
35562;SDS011;21665;40.108;18.302;2023-01-30T08:55:34;24.50;;;22.30;;
35562;SDS011;21665;40.108;18.302;2023-01-30T08:58:00;25.20;;;22.80;;
35562;SDS011;21665;40.108;18.302;2023-01-30T09:00:27;24.88;;;22.65;;
35562;SDS011;21665;40.108;18.302;2023-01-30T09:02:54;23.08;;;20.98;;
35562;SDS011;21665;40.108;18.302;2023-01-30T09:05:22;24.33;;;22.02;;
35562;SDS011;21665;40.108;18.302;2023-01-30T09:07:50;23.15;;;21.20;;
35562;SDS011;21665;40.108;18.302;2023-01-30T09:10:24;23.90;;;21.45;;
35562;SDS011;21665;40.108;18.302;2023-01-30T09:12:50;23.58;;;21.48;;
35562;SDS011;21665;40.108;18.302;2023-01-30T09:15:17;24.63;;;22.38;;
35562;SDS011;21665;40.108;18.302;2023-01-30T09:17:43;23.77;;;21.42;;
35562;SDS011;21665;40.108;18.302;2023-01-30T09:20:09;24.35;;;21.80;;
35562;SDS011;21665;40.108;18.302;2023-01-30T09:22:37;24.17;;;21.40;;
35562;SDS011;21665;40.108;18.302;2023-01-30T09:25:03;25.35;;;22.63;;
35562;SDS011;21665;40.108;18.302;2023-01-30T09:27:31;23.17;;;20.95;;
35562;SDS011;21665;40.108;18.302;2023-01-30T09:29:57;22.35;;;20.30;;
35562;SDS011;21665;40.108;18.302;2023-01-30T09:32:23;22.98;;;20.67;;
35562;SDS011;21665;40.108;18.302;2023-01-30T09:34:50;23.55;;;21.27;;
35562;SDS011;21665;40.108;18.302;2023-01-30T09:37:19;24.23;;;21.88;;
35562;SDS011;21665;40.108;18.302;2023-01-30T09:39:46;24.58;;;22.20;;
35562;SDS011;21665;40.108;18.302;2023-01-30T09:45:22;23.77;;;21.38;;
35562;SDS011;21665;40.108;18.302;2023-01-30T09:47:57;22.83;;;20.63;;
35562;SDS011;21665;40.108;18.302;2023-01-30T09:56:03;22.88;;;20.42;;
35562;SDS011;21665;40.108;18.302;2023-01-30T09:58:40;22.83;;;20.50;;
35562;SDS011;21665;40.108;18.302;2023-01-30T10:01:16;21.75;;;19.70;;
35562;SDS011;21665;40.108;18.302;2023-01-30T10:06:52;21.52;;;19.35;;
35562;SDS011;21665;40.108;18.302;2023-01-30T10:15:10;23.75;;;19.10;;
35562;SDS011;21665;40.108;18.302;2023-01-30T10:26:29;25.55;;;21.42;;
35562;SDS011;21665;40.108;18.302;2023-01-30T10:29:01;29.50;;;23.10;;
35562;SDS011;21665;40.108;18.302;2023-01-30T10:37:02;24.85;;;20.60;;
35562;SDS011;21665;40.108;18.302;2023-01-30T10:42:30;30.10;;;23.27;;
35562;SDS011;21665;40.108;18.302;2023-01-30T10:45:11;22.52;;;19.30;;
35562;SDS011;21665;40.108;18.302;2023-01-30T10:51:14;22.88;;;20.40;;
35562;SDS011;21665;40.108;18.302;2023-01-30T10:53:27;25.13;;;22.42;;
35562;SDS011;21665;40.108;18.302;2023-01-30T10:58:59;85.32;;;54.60;;
35562;SDS011;21665;40.108;18.302;2023-01-30T11:01:55;20.65;;;18.70;;
35562;SDS011;21665;40.108;18.302;2023-01-30T11:04:34;25.48;;;20.95;;
35562;SDS011;21665;40.108;18.302;2023-01-30T11:07:18;22.60;;;20.25;;
35562;SDS011;21665;40.108;18.302;2023-01-30T11:09:45;22.58;;;20.08;;
35562;SDS011;21665;40.108;18.302;2023-01-30T11:12:13;21.25;;;18.92;;
35562;SDS011;21665;40.108;18.302;2023-01-30T11:17:21;19.95;;;17.98;;
35562;SDS011;21665;40.108;18.302;2023-01-30T11:19:56;19.90;;;18.00;;
35562;SDS011;21665;40.108;18.302;2023-01-30T11:22:27;20.83;;;18.70;;
35562;SDS011;21665;40.108;18.302;2023-01-30T11:25:00;22.13;;;19.83;;
35562;SDS011;21665;40.108;18.302;2023-01-30T11:27:53;23.35;;;20.00;;
35562;SDS011;21665;40.108;18.302;2023-01-30T11:30:22;22.42;;;20.23;;
35562;SDS011;21665;40.108;18.302;2023-01-30T11:33:16;21.83;;;19.73;;
35562;SDS011;21665;40.108;18.302;2023-01-30T11:35:52;22.35;;;20.08;;
35562;SDS011;21665;40.108;18.302;2023-01-30T11:38:29;23.17;;;20.98;;
35562;SDS011;21665;40.108;18.302;2023-01-30T11:41:02;23.63;;;21.33;;
35562;SDS011;21665;40.108;18.302;2023-01-30T11:43:33;23.13;;;20.88;;
35562;SDS011;21665;40.108;18.302;2023-01-30T11:46:02;25.15;;;22.73;;
35562;SDS011;21665;40.108;18.302;2023-01-30T11:48:30;23.60;;;21.30;;
35562;SDS011;21665;40.108;18.302;2023-01-30T11:51:00;24.63;;;22.15;;
35562;SDS011;21665;40.108;18.302;2023-01-30T11:56:13;24.83;;;22.52;;
35562;SDS011;21665;40.108;18.302;2023-01-30T11:59:02;23.30;;;21.30;;
35562;SDS011;21665;40.108;18.302;2023-01-30T12:01:34;24.05;;;21.90;;
35562;SDS011;21665;40.108;18.302;2023-01-30T12:04:04;22.85;;;20.85;;
35562;SDS011;21665;40.108;18.302;2023-01-30T12:06:36;22.10;;;20.40;;
35562;SDS011;21665;40.108;18.302;2023-01-30T12:09:04;23.85;;;21.42;;
35562;SDS011;21665;40.108;18.302;2023-01-30T12:11:51;22.75;;;20.38;;
35562;SDS011;21665;40.108;18.302;2023-01-30T12:14:20;24.50;;;21.90;;
35562;SDS011;21665;40.108;18.302;2023-01-30T12:16:57;24.75;;;22.05;;
35562;SDS011;21665;40.108;18.302;2023-01-30T12:19:44;26.38;;;21.80;;
35562;SDS011;21665;40.108;18.302;2023-01-30T12:22:31;29.80;;;22.25;;
35562;SDS011;21665;40.108;18.302;2023-01-30T12:25:11;22.83;;;20.25;;
35562;SDS011;21665;40.108;18.302;2023-01-30T12:27:56;24.40;;;20.42;;
35562;SDS011;21665;40.108;18.302;2023-01-30T12:30:48;23.00;;;19.98;;
35562;SDS011;21665;40.108;18.302;2023-01-30T12:33:28;23.77;;;21.13;;
35562;SDS011;21665;40.108;18.302;2023-01-30T12:36:44;23.55;;;21.05;;
35562;SDS011;21665;40.108;18.302;2023-01-30T12:56:19;23.17;;;20.88;;
35562;SDS011;21665;40.108;18.302;2023-01-30T13:07:23;26.20;;;23.52;;
35562;SDS011;21665;40.108;18.302;2023-01-30T13:10:07;27.52;;;24.73;;
35562;SDS011;21665;40.108;18.302;2023-01-30T13:12:59;27.48;;;24.75;;
35562;SDS011;21665;40.108;18.302;2023-01-30T13:16:01;26.00;;;23.40;;
35562;SDS011;21665;40.108;18.302;2023-01-30T13:18:54;27.58;;;24.70;;
35562;SDS011;21665;40.108;18.302;2023-01-30T13:21:35;24.98;;;22.58;;
35562;SDS011;21665;40.108;18.302;2023-01-30T13:24:24;23.90;;;21.65;;
35562;SDS011;21665;40.108;18.302;2023-01-30T13:26:57;21.63;;;19.48;;
35562;SDS011;21665;40.108;18.302;2023-01-30T13:29:35;22.40;;;20.23;;
35562;SDS011;21665;40.108;18.302;2023-01-30T13:32:05;22.17;;;20.15;;
35562;SDS011;21665;40.108;18.302;2023-01-30T13:35:00;22.30;;;20.20;;
35562;SDS011;21665;40.108;18.302;2023-01-30T13:37:39;23.20;;;21.05;;
35562;SDS011;21665;40.108;18.302;2023-01-30T13:40:17;18.90;;;17.48;;
35562;SDS011;21665;40.108;18.302;2023-01-30T13:42:55;23.17;;;20.90;;
35562;SDS011;21665;40.108;18.302;2023-01-30T13:45:31;21.35;;;19.35;;
35562;SDS011;21665;40.108;18.302;2023-01-30T13:53:10;21.15;;;19.05;;
35562;SDS011;21665;40.108;18.302;2023-01-30T13:56:05;25.13;;;22.52;;
35562;SDS011;21665;40.108;18.302;2023-01-30T13:59:03;21.52;;;19.38;;
35562;SDS011;21665;40.108;18.302;2023-01-30T14:12:13;24.83;;;22.13;;
35562;SDS011;21665;40.108;18.302;2023-01-30T14:15:01;24.77;;;21.25;;
35562;SDS011;21665;40.108;18.302;2023-01-30T14:20:32;23.20;;;20.65;;
35562;SDS011;21665;40.108;18.302;2023-01-30T14:23:05;23.15;;;20.77;;
35562;SDS011;21665;40.108;18.302;2023-01-30T14:25:51;23.85;;;20.52;;
35562;SDS011;21665;40.108;18.302;2023-01-30T14:30:54;20.35;;;18.52;;
35562;SDS011;21665;40.108;18.302;2023-01-30T14:38:26;23.25;;;20.98;;
35562;SDS011;21665;40.108;18.302;2023-01-30T14:53:53;29.73;;;26.50;;
35562;SDS011;21665;40.108;18.302;2023-01-30T14:56:36;25.73;;;23.05;;
35562;SDS011;21665;40.108;18.302;2023-01-30T15:04:21;31.77;;;28.52;;
35562;SDS011;21665;40.108;18.302;2023-01-30T15:06:49;22.70;;;20.38;;
35562;SDS011;21665;40.108;18.302;2023-01-30T15:09:20;23.55;;;21.27;;
35562;SDS011;21665;40.108;18.302;2023-01-30T15:11:57;29.25;;;26.25;;
35562;SDS011;21665;40.108;18.302;2023-01-30T15:14:44;28.08;;;23.98;;
35562;SDS011;21665;40.108;18.302;2023-01-30T15:17:20;22.08;;;20.08;;
35562;SDS011;21665;40.108;18.302;2023-01-30T15:20:16;34.95;;;29.13;;
35562;SDS011;21665;40.108;18.302;2023-01-30T15:23:00;55.85;;;36.92;;
35562;SDS011;21665;40.108;18.302;2023-01-30T15:28:48;31.73;;;28.02;;
35562;SDS011;21665;40.108;18.302;2023-01-30T15:31:53;27.73;;;24.80;;
35562;SDS011;21665;40.108;18.302;2023-01-30T15:34:46;33.28;;;28.60;;
35562;SDS011;21665;40.108;18.302;2023-01-30T15:42:43;33.63;;;27.27;;
35562;SDS011;21665;40.108;18.302;2023-01-30T15:50:53;36.30;;;30.23;;
35562;SDS011;21665;40.108;18.302;2023-01-30T15:53:26;34.97;;;29.35;;
35562;SDS011;21665;40.108;18.302;2023-01-30T15:56:05;34.85;;;26.40;;
35562;SDS011;21665;40.108;18.302;2023-01-30T15:58:35;28.92;;;25.88;;
35562;SDS011;21665;40.108;18.302;2023-01-30T16:01:05;50.30;;;34.90;;
35562;SDS011;21665;40.108;18.302;2023-01-30T16:03:40;73.00;;;41.15;;
35562;SDS011;21665;40.108;18.302;2023-01-30T16:08:54;52.22;;;34.72;;
35562;SDS011;21665;40.108;18.302;2023-01-30T16:12:00;36.55;;;29.23;;
35562;SDS011;21665;40.108;18.302;2023-01-30T16:14:21;38.95;;;26.40;;
35562;SDS011;21665;40.108;18.302;2023-01-30T16:17:01;43.08;;;30.27;;
35562;SDS011;21665;40.108;18.302;2023-01-30T16:19:32;35.03;;;28.17;;
35562;SDS011;21665;40.108;18.302;2023-01-30T16:22:03;44.22;;;30.30;;
35562;SDS011;21665;40.108;18.302;2023-01-30T16:24:35;39.97;;;29.95;;
35562;SDS011;21665;40.108;18.302;2023-01-30T16:27:15;43.97;;;29.40;;
35562;SDS011;21665;40.108;18.302;2023-01-30T16:29:54;54.70;;;33.67;;
35562;SDS011;21665;40.108;18.302;2023-01-30T16:32:25;55.83;;;34.75;;
35562;SDS011;21665;40.108;18.302;2023-01-30T16:38:02;53.78;;;32.05;;
35562;SDS011;21665;40.108;18.302;2023-01-30T16:41:00;58.47;;;36.00;;
35562;SDS011;21665;40.108;18.302;2023-01-30T16:43:28;51.55;;;33.15;;
35562;SDS011;21665;40.108;18.302;2023-01-30T16:49:02;63.63;;;36.40;;
35562;SDS011;21665;40.108;18.302;2023-01-30T16:51:30;158.93;;;77.82;;
35562;SDS011;21665;40.108;18.302;2023-01-30T16:53:59;144.50;;;72.13;;
35562;SDS011;21665;40.108;18.302;2023-01-30T16:56:28;152.18;;;82.80;;
35562;SDS011;21665;40.108;18.302;2023-01-30T16:58:59;88.47;;;49.88;;
35562;SDS011;21665;40.108;18.302;2023-01-30T17:01:33;83.15;;;48.42;;
35562;SDS011;21665;40.108;18.302;2023-01-30T17:04:04;85.03;;;48.47;;
35562;SDS011;21665;40.108;18.302;2023-01-30T17:06:40;77.18;;;46.58;;
35562;SDS011;21665;40.108;18.302;2023-01-30T17:09:53;87.32;;;44.90;;
35562;SDS011;21665;40.108;18.302;2023-01-30T17:17:38;68.85;;;39.97;;
35562;SDS011;21665;40.108;18.302;2023-01-30T17:20:05;72.78;;;44.38;;
35562;SDS011;21665;40.108;18.302;2023-01-30T17:22:33;82.95;;;48.30;;
35562;SDS011;21665;40.108;18.302;2023-01-30T17:25:01;82.22;;;54.42;;
35562;SDS011;21665;40.108;18.302;2023-01-30T17:27:29;69.10;;;44.88;;
35562;SDS011;21665;40.108;18.302;2023-01-30T17:30:00;61.90;;;41.45;;
35562;SDS011;21665;40.108;18.302;2023-01-30T17:32:26;58.15;;;39.22;;
35562;SDS011;21665;40.108;18.302;2023-01-30T17:34:53;57.95;;;39.78;;
35562;SDS011;21665;40.108;18.302;2023-01-30T17:37:20;56.42;;;39.60;;
35562;SDS011;21665;40.108;18.302;2023-01-30T17:39:47;63.92;;;43.15;;
35562;SDS011;21665;40.108;18.302;2023-01-30T17:42:14;63.67;;;43.33;;
35562;SDS011;21665;40.108;18.302;2023-01-30T17:44:50;66.57;;;43.95;;
35562;SDS011;21665;40.108;18.302;2023-01-30T17:47:17;59.00;;;41.95;;
35562;SDS011;21665;40.108;18.302;2023-01-30T17:49:43;55.47;;;39.40;;
35562;SDS011;21665;40.108;18.302;2023-01-30T17:52:12;53.20;;;35.45;;
35562;SDS011;21665;40.108;18.302;2023-01-30T17:54:39;51.55;;;34.65;;
35562;SDS011;21665;40.108;18.302;2023-01-30T17:57:06;44.88;;;33.55;;
35562;SDS011;21665;40.108;18.302;2023-01-30T17:59:36;52.45;;;37.78;;
35562;SDS011;21665;40.108;18.302;2023-01-30T18:02:03;56.72;;;39.42;;
35562;SDS011;21665;40.108;18.302;2023-01-30T18:04:31;58.17;;;40.55;;
35562;SDS011;21665;40.108;18.302;2023-01-30T18:06:58;66.63;;;44.90;;
35562;SDS011;21665;40.108;18.302;2023-01-30T18:09:29;70.82;;;47.78;;
35562;SDS011;21665;40.108;18.302;2023-01-30T18:11:56;70.72;;;45.13;;
35562;SDS011;21665;40.108;18.302;2023-01-30T18:14:22;61.05;;;38.45;;
35562;SDS011;21665;40.108;18.302;2023-01-30T18:16:53;64.22;;;42.05;;
35562;SDS011;21665;40.108;18.302;2023-01-30T18:19:25;90.70;;;52.03;;
35562;SDS011;21665;40.108;18.302;2023-01-30T18:21:53;99.35;;;58.67;;
35562;SDS011;21665;40.108;18.302;2023-01-30T18:24:20;84.18;;;51.55;;
35562;SDS011;21665;40.108;18.302;2023-01-30T18:26:46;60.08;;;40.15;;
35562;SDS011;21665;40.108;18.302;2023-01-30T18:29:13;57.83;;;40.92;;
35562;SDS011;21665;40.108;18.302;2023-01-30T18:31:41;51.95;;;39.65;;